N319SB KHOU-KMIA
Flight info
| Callsign | N319SB |
|---|---|
| Flight time | N/A |
| Altitude | 39000 |
| Route | ELOCO6 LLA LEV Y290 GAWKS FROGZ5 |
| Aircraft | A319/M-SDE3FGHIRWY/LB1 |
Departure
| Time | 2026-05-03 23:38 |
|---|---|
| Airport | William P. Hobby Airport (KHOU) |
Arrival
| Time | N/A |
|---|---|
| Airport | Miami International Airport (KMIA) |
| Time | Latitude | Longitude | Altitude | Speed | Heading |
|---|---|---|---|---|---|
| 2026-05-03 23:24 | 29.64808 | -95.28626 | 52 ft | 0 kts | 93° |
| 2026-05-03 23:36 | 29.64808 | -95.28624 | 52 ft | 0 kts | 93° |
| 2026-05-03 23:36 | 29.64807 | -95.28607 | 52 ft | 4 kts | 93° |
| 2026-05-03 23:36 | 29.64805 | -95.28564 | 52 ft | 8 kts | 93° |
| 2026-05-03 23:36 | 29.64807 | -95.28463 | 52 ft | 16 kts | 88° |
| 2026-05-03 23:37 | 29.64811 | -95.28323 | 52 ft | 19 kts | 88° |
| 2026-05-03 23:37 | 29.64790 | -95.28191 | 52 ft | 10 kts | 130° |
| 2026-05-03 23:37 | 29.64784 | -95.28183 | 52 ft | 0 kts | 133° |
| 2026-05-03 23:37 | 29.64679 | -95.28057 | 51 ft | 70 kts | 134° |
| 2026-05-03 23:38 | 29.64095 | -95.27378 | 83 ft | 161 kts | 134° |
| 2026-05-03 23:38 | 29.63302 | -95.26414 | 1009 ft | 165 kts | 136° |
| 2026-05-03 23:38 | 29.62518 | -95.25425 | 2011 ft | 175 kts | 133° |
| 2026-05-03 23:38 | 29.61696 | -95.24332 | 2725 ft | 187 kts | 133° |
| 2026-05-03 23:39 | 29.60801 | -95.23145 | 3394 ft | 206 kts | 131° |
| 2026-05-03 23:39 | 29.59790 | -95.21842 | 4070 ft | 231 kts | 132° |
| 2026-05-03 23:39 | 29.58638 | -95.20405 | 4750 ft | 257 kts | 132° |
| 2026-05-03 23:39 | 29.57375 | -95.18864 | 5399 ft | 269 kts | 132° |
| 2026-05-03 23:40 | 29.56078 | -95.17305 | 6047 ft | 275 kts | 132° |
| 2026-05-03 23:40 | 29.54754 | -95.15696 | 6698 ft | 279 kts | 131° |
| 2026-05-03 23:40 | 29.53759 | -95.13771 | 7577 ft | 285 kts | 108° |
| 2026-05-03 23:40 | 29.53506 | -95.11511 | 8608 ft | 290 kts | 82° |
| 2026-05-03 23:41 | 29.54117 | -95.09307 | 9651 ft | 293 kts | 57° |
| 2026-05-03 23:41 | 29.55297 | -95.07353 | 10436 ft | 308 kts | 52° |
| 2026-05-03 23:41 | 29.56610 | -95.05273 | 10944 ft | 332 kts | 52° |
| 2026-05-03 23:41 | 29.57975 | -95.03074 | 11774 ft | 343 kts | 56° |
| 2026-05-03 23:42 | 29.59068 | -95.00610 | 12711 ft | 351 kts | 68° |
| 2026-05-03 23:42 | 29.59832 | -94.97911 | 13679 ft | 357 kts | 71° |
| 2026-05-03 23:42 | 29.60581 | -94.95159 | 14558 ft | 363 kts | 71° |
| 2026-05-03 23:42 | 29.61340 | -94.92371 | 15360 ft | 369 kts | 70° |
| 2026-05-03 23:43 | 29.62116 | -94.89527 | 16167 ft | 376 kts | 69° |
| 2026-05-03 23:43 | 29.62908 | -94.86633 | 16939 ft | 383 kts | 69° |
| 2026-05-03 23:43 | 29.63746 | -94.83705 | 17715 ft | 388 kts | 64° |
| 2026-05-03 23:43 | 29.64782 | -94.80818 | 18489 ft | 393 kts | 62° |
| 2026-05-03 23:44 | 29.65839 | -94.77888 | 19147 ft | 399 kts | 62° |
| 2026-05-03 23:44 | 29.66913 | -94.74915 | 19815 ft | 405 kts | 62° |
| 2026-05-03 23:44 | 29.67854 | -94.71816 | 20473 ft | 418 kts | 73° |
| 2026-05-03 23:44 | 29.68102 | -94.68475 | 21122 ft | 430 kts | 85° |
| 2026-05-03 23:45 | 29.68150 | -94.65012 | 21791 ft | 436 kts | 86° |
| 2026-05-03 23:45 | 29.68187 | -94.61494 | 22444 ft | 442 kts | 86° |
| 2026-05-03 23:45 | 29.68218 | -94.57934 | 23087 ft | 449 kts | 86° |
| 2026-05-03 23:45 | 29.68248 | -94.54323 | 23729 ft | 455 kts | 85° |
| 2026-05-03 23:46 | 29.68283 | -94.50659 | 24238 ft | 461 kts | 85° |
| 2026-05-03 23:46 | 29.68320 | -94.46945 | 24754 ft | 467 kts | 85° |
| 2026-05-03 23:46 | 29.68359 | -94.43185 | 25242 ft | 473 kts | 85° |
| 2026-05-03 23:46 | 29.68396 | -94.39382 | 25734 ft | 478 kts | 85° |
| 2026-05-03 23:47 | 29.68433 | -94.35538 | 26217 ft | 484 kts | 85° |
| 2026-05-03 23:47 | 29.68469 | -94.31649 | 26696 ft | 489 kts | 85° |
| 2026-05-03 23:47 | 29.68506 | -94.27703 | 27170 ft | 494 kts | 85° |
| 2026-05-03 23:47 | 29.68541 | -94.23725 | 27634 ft | 499 kts | 85° |
| 2026-05-03 23:48 | 29.68572 | -94.19756 | 28094 ft | 504 kts | 85° |
| 2026-05-03 23:48 | 29.68600 | -94.15709 | 28607 ft | 509 kts | 85° |
| 2026-05-03 23:48 | 29.68627 | -94.11620 | 29080 ft | 513 kts | 85° |
| 2026-05-03 23:48 | 29.68654 | -94.07498 | 29536 ft | 518 kts | 85° |
| 2026-05-03 23:49 | 29.68681 | -94.03335 | 29983 ft | 523 kts | 85° |
| 2026-05-03 23:49 | 29.68687 | -93.99139 | 30389 ft | 528 kts | 85° |
| 2026-05-03 23:49 | 29.68660 | -93.94905 | 30784 ft | 531 kts | 86° |
| 2026-05-03 23:49 | 29.68609 | -93.90638 | 31186 ft | 534 kts | 86° |
| 2026-05-03 23:50 | 29.68546 | -93.86353 | 31584 ft | 537 kts | 86° |
| 2026-05-03 23:50 | 29.68504 | -93.83506 | 31846 ft | 539 kts | 86° |
| 2026-05-03 23:50 | 29.68430 | -93.77728 | 32456 ft | 540 kts | 85° |
| 2026-05-03 23:50 | 29.68382 | -93.73416 | 33001 ft | 539 kts | 85° |
| 2026-05-03 23:51 | 29.68339 | -93.69106 | 33536 ft | 538 kts | 85° |
| 2026-05-03 23:51 | 29.68298 | -93.64798 | 34074 ft | 537 kts | 84° |
| 2026-05-03 23:51 | 29.68256 | -93.60497 | 34557 ft | 537 kts | 84° |
| 2026-05-03 23:51 | 29.68213 | -93.56206 | 35045 ft | 536 kts | 84° |
| 2026-05-03 23:52 | 29.68167 | -93.51930 | 35530 ft | 534 kts | 84° |
| 2026-05-03 23:52 | 29.68119 | -93.47720 | 36005 ft | 533 kts | 84° |
| 2026-05-03 23:52 | 29.68068 | -93.43458 | 36471 ft | 532 kts | 84° |
| 2026-05-03 23:52 | 29.68015 | -93.39212 | 36929 ft | 531 kts | 84° |
| 2026-05-03 23:53 | 29.67958 | -93.34970 | 37378 ft | 530 kts | 84° |
| 2026-05-03 23:53 | 29.67898 | -93.30738 | 37834 ft | 528 kts | 84° |
| 2026-05-03 23:53 | 29.67838 | -93.26509 | 38288 ft | 527 kts | 84° |
| 2026-05-03 23:53 | 29.67781 | -93.22300 | 38731 ft | 526 kts | 84° |
| 2026-05-03 23:54 | 29.67726 | -93.18091 | 39052 ft | 527 kts | 84° |
| 2026-05-03 23:54 | 29.67669 | -93.13876 | 39148 ft | 527 kts | 84° |
| 2026-05-03 23:54 | 29.67541 | -93.05453 | 39165 ft | 526 kts | 84° |
| 2026-05-03 23:55 | 29.67429 | -92.98453 | 39163 ft | 526 kts | 84° |
| 2026-05-03 23:55 | 29.67273 | -92.88669 | 39162 ft | 526 kts | 84° |
| 2026-05-03 23:56 | 29.67154 | -92.81660 | 39164 ft | 526 kts | 85° |
| 2026-05-03 23:56 | 29.67007 | -92.73255 | 39160 ft | 526 kts | 84° |